createdAt,value
2022-10-06T05:57:55.272Z,2.50
2022-10-06T06:00:22.223Z,2.30
2022-10-06T06:02:49.263Z,2.40
2022-10-06T06:05:16.280Z,2.33
2022-10-06T06:07:43.376Z,2.25
2022-10-06T06:10:10.524Z,2.30
2022-10-06T06:12:37.469Z,2.47
2022-10-06T06:15:24.590Z,2.30
2022-10-06T06:17:51.650Z,2.33
2022-10-06T06:20:19.703Z,2.20
2022-10-06T06:22:51.914Z,2.30
2022-10-06T06:25:18.890Z,2.20
2022-10-06T06:27:46.053Z,2.38
2022-10-06T06:30:13.030Z,2.40
2022-10-06T06:32:40.079Z,2.20
2022-10-06T06:35:07.303Z,2.33
2022-10-06T06:37:34.305Z,2.20
2022-10-06T06:40:01.326Z,2.50
2022-10-06T06:42:28.312Z,2.33
2022-10-06T06:45:29.409Z,2.50
2022-10-06T06:47:56.940Z,2.33
2022-10-06T06:50:23.971Z,2.30
2022-10-06T06:52:50.939Z,2.33
2022-10-06T06:55:18.095Z,2.40
2022-10-06T06:57:46.373Z,2.30
2022-10-06T07:00:13.952Z,2.33
2022-10-06T07:02:40.997Z,2.17
2022-10-06T07:05:07.954Z,2.47
2022-10-06T07:07:35.932Z,2.28
2022-10-06T07:10:02.934Z,2.30
2022-10-06T07:12:30.011Z,2.55
2022-10-06T07:15:16.919Z,2.47
2022-10-06T07:18:03.885Z,2.55
2022-10-06T07:20:50.829Z,2.30
2022-10-06T07:23:39.104Z,2.40
2022-10-06T07:26:07.033Z,2.50
2022-10-06T07:28:34.117Z,2.58
2022-10-06T07:31:01.252Z,2.33
2022-10-06T07:33:29.158Z,2.60
2022-10-06T07:35:56.315Z,2.70
2022-10-06T07:38:25.832Z,2.30
2022-10-06T07:41:17.932Z,2.55
2022-10-06T07:43:41.882Z,2.63
2022-10-06T07:46:11.057Z,2.33
2022-10-06T07:48:39.182Z,2.75
2022-10-06T07:51:12.804Z,2.60
2022-10-06T07:53:39.799Z,2.70
2022-10-06T07:56:28.589Z,2.53
2022-10-06T07:58:58.897Z,2.33
2022-10-06T08:01:27.678Z,2.40
2022-10-06T08:03:54.698Z,2.45
2022-10-06T08:06:23.506Z,2.70
2022-10-06T08:08:53.489Z,2.70
2022-10-06T08:11:21.505Z,2.80
2022-10-06T08:13:48.560Z,2.40
2022-10-06T08:16:17.629Z,2.60
2022-10-06T08:18:49.193Z,2.58
2022-10-06T08:23:54.467Z,2.67
2022-10-06T08:26:22.149Z,2.72
2022-10-06T08:28:50.522Z,3.00
2022-10-06T08:31:18.568Z,2.83
2022-10-06T08:33:47.350Z,3.05
2022-10-06T08:36:20.980Z,3.13
2022-10-06T08:38:49.837Z,3.00
2022-10-06T08:41:21.617Z,2.67
2022-10-06T08:43:53.571Z,3.10
2022-10-06T08:50:28.455Z,2.75
2022-10-06T08:53:06.668Z,2.97
2022-10-06T08:55:52.180Z,2.55
2022-10-06T08:58:29.113Z,2.85
2022-10-06T09:01:02.903Z,3.10
2022-10-06T09:03:30.520Z,2.60
2022-10-06T09:06:02.620Z,2.95
2022-10-06T09:08:38.520Z,2.88
2022-10-06T09:13:45.689Z,2.40
2022-10-06T09:16:16.220Z,2.65
2022-10-06T09:21:40.602Z,2.50
2022-10-06T09:24:12.370Z,2.47
2022-10-06T09:26:43.115Z,2.38
2022-10-06T09:29:10.536Z,2.80
2022-10-06T09:31:38.920Z,2.50
2022-10-06T09:34:13.636Z,2.50
2022-10-06T09:37:01.583Z,2.50
2022-10-06T09:39:33.026Z,2.42
2022-10-06T09:42:02.880Z,2.30
2022-10-06T09:44:31.536Z,2.50
2022-10-06T09:46:58.530Z,2.50
2022-10-06T09:49:26.997Z,2.60
2022-10-06T09:54:41.644Z,2.60
2022-10-06T09:57:10.342Z,2.63
2022-10-06T09:59:41.564Z,2.88
2022-10-06T10:02:27.026Z,2.90
2022-10-06T10:04:56.171Z,2.60
2022-10-06T10:07:31.116Z,2.97
2022-10-06T10:10:18.065Z,2.90
2022-10-06T10:12:51.325Z,2.72
2022-10-06T10:17:57.790Z,2.90
2022-10-06T10:23:07.909Z,2.80
2022-10-06T10:25:55.300Z,2.72
2022-10-06T10:28:44.241Z,2.67
2022-10-06T10:31:18.291Z,2.20
2022-10-06T10:34:05.320Z,1.98
2022-10-06T10:36:43.446Z,1.50
2022-10-06T10:39:14.772Z,1.50
2022-10-06T10:41:46.285Z,1.80
2022-10-06T10:44:21.478Z,1.80
2022-10-06T10:46:50.185Z,1.55
2022-10-06T10:49:24.404Z,1.30
2022-10-06T10:51:56.219Z,1.10
2022-10-06T10:54:29.777Z,1.30
2022-10-06T10:57:28.245Z,1.30
2022-10-06T11:02:34.418Z,1.70
2022-10-06T11:05:06.030Z,1.73
2022-10-06T11:10:18.169Z,1.45
2022-10-06T11:15:43.194Z,1.20
2022-10-06T11:18:26.028Z,1.20
2022-10-06T11:20:56.797Z,1.20
2022-10-06T11:26:05.243Z,1.33
2022-10-06T11:28:37.357Z,1.50
2022-10-06T11:31:12.279Z,1.40
2022-10-06T11:33:56.176Z,1.50
2022-10-06T11:36:44.459Z,1.42
2022-10-06T11:39:17.492Z,1.13
2022-10-06T11:41:48.622Z,1.10
2022-10-06T11:46:55.128Z,0.93
2022-10-06T12:02:41.672Z,1.20
2022-10-06T12:18:34.268Z,1.35
2022-10-06T12:21:06.532Z,1.58
2022-10-06T12:23:39.727Z,1.20
2022-10-06T12:26:17.144Z,1.23
2022-10-06T12:28:49.706Z,1.27
2022-10-06T12:31:37.227Z,1.33
2022-10-06T12:34:04.560Z,1.20
2022-10-06T12:36:32.396Z,1.30
2022-10-06T12:42:00.329Z,1.40
2022-10-06T12:44:34.027Z,1.47
2022-10-06T12:47:03.903Z,2.28
2022-10-06T12:52:10.220Z,3.28
2022-10-06T12:54:41.294Z,3.08
2022-10-06T12:57:28.341Z,3.33
2022-10-06T12:59:55.688Z,3.70
